Terminal Aerodrome Forecast
Issued by NWS

Home | Current Version | Previous Version | Text Only | Print | Product List | Glossary On
Versions: 1 2 3 4 5 6 7 8 9 10 11 12 13 14 15 16 17 18 19 20 21 22 23
404
FTUS45 KREV 301124
TAFTRK
TAF
KTRK 301124Z 3012/3112 VRB03KT P6SM SCT120 BKN200
     FM301700 20009G17KT P6SM SCT120 BKN200
     FM301900 24015G24KT P6SM SCT120 SCT200
     FM302300 26014G22KT P6SM FEW120 SCT200
     FM310400 VRB03KT P6SM SCT200=

USA.gov is the U.S. government's official web portal to all federal, state and local government web resources and services.